sensor_id;sensor_type;location;lat;lon;timestamp;temperature;humidity
3770;DHT22;1900;48.890;9.190;2023-07-20T00:01:54;27.60;42.30
3770;DHT22;1900;48.890;9.190;2023-07-20T00:04:20;27.60;42.40
3770;DHT22;1900;48.890;9.190;2023-07-20T00:06:45;27.60;42.40
3770;DHT22;1900;48.890;9.190;2023-07-20T00:09:11;27.50;42.30
3770;DHT22;1900;48.890;9.190;2023-07-20T00:11:37;27.50;42.30
3770;DHT22;1900;48.890;9.190;2023-07-20T00:14:05;27.50;42.40
3770;DHT22;1900;48.890;9.190;2023-07-20T00:16:31;27.50;42.30
3770;DHT22;1900;48.890;9.190;2023-07-20T00:18:56;27.50;42.30
3770;DHT22;1900;48.890;9.190;2023-07-20T00:21:22;27.40;42.30
3770;DHT22;1900;48.890;9.190;2023-07-20T00:23:48;27.40;42.30
3770;DHT22;1900;48.890;9.190;2023-07-20T00:26:13;27.40;42.30
3770;DHT22;1900;48.890;9.190;2023-07-20T00:28:39;27.40;42.30
3770;DHT22;1900;48.890;9.190;2023-07-20T00:31:05;27.40;42.30
3770;DHT22;1900;48.890;9.190;2023-07-20T00:33:31;27.40;42.40
3770;DHT22;1900;48.890;9.190;2023-07-20T00:35:58;27.40;42.40
3770;DHT22;1900;48.890;9.190;2023-07-20T00:38:23;27.40;42.50
3770;DHT22;1900;48.890;9.190;2023-07-20T00:40:49;27.40;42.40
3770;DHT22;1900;48.890;9.190;2023-07-20T00:43:17;27.40;42.40
3770;DHT22;1900;48.890;9.190;2023-07-20T00:45:43;27.40;42.40
3770;DHT22;1900;48.890;9.190;2023-07-20T00:48:09;27.40;42.40
3770;DHT22;1900;48.890;9.190;2023-07-20T00:50:35;27.40;42.40
3770;DHT22;1900;48.890;9.190;2023-07-20T00:53:03;27.40;42.30
3770;DHT22;1900;48.890;9.190;2023-07-20T00:55:32;27.30;42.20
3770;DHT22;1900;48.890;9.190;2023-07-20T00:57:59;27.30;42.30
3770;DHT22;1900;48.890;9.190;2023-07-20T01:00:24;27.30;42.20
3770;DHT22;1900;48.890;9.190;2023-07-20T01:02:51;27.30;42.10
3770;DHT22;1900;48.890;9.190;2023-07-20T01:05:17;27.20;42.00
3770;DHT22;1900;48.890;9.190;2023-07-20T01:07:55;27.20;42.00
3770;DHT22;1900;48.890;9.190;2023-07-20T01:10:33;27.10;42.00
3770;DHT22;1900;48.890;9.190;2023-07-20T01:13:00;27.10;42.00
3770;DHT22;1900;48.890;9.190;2023-07-20T01:15:27;27.10;42.00
3770;DHT22;1900;48.890;9.190;2023-07-20T01:17:53;27.00;42.00
3770;DHT22;1900;48.890;9.190;2023-07-20T01:20:21;27.00;42.00
3770;DHT22;1900;48.890;9.190;2023-07-20T01:33:26;26.90;42.10
3770;DHT22;1900;48.890;9.190;2023-07-20T01:35:56;26.90;42.20
3770;DHT22;1900;48.890;9.190;2023-07-20T01:38:28;26.90;42.20
3770;DHT22;1900;48.890;9.190;2023-07-20T01:40:55;26.90;42.20
3770;DHT22;1900;48.890;9.190;2023-07-20T01:43:21;26.90;42.20
3770;DHT22;1900;48.890;9.190;2023-07-20T01:45:47;26.90;42.20
3770;DHT22;1900;48.890;9.190;2023-07-20T01:48:16;26.90;42.30
3770;DHT22;1900;48.890;9.190;2023-07-20T01:50:41;26.90;42.20
3770;DHT22;1900;48.890;9.190;2023-07-20T01:53:08;26.90;42.20
3770;DHT22;1900;48.890;9.190;2023-07-20T01:55:34;26.80;42.10
3770;DHT22;1900;48.890;9.190;2023-07-20T01:57:59;26.80;42.10
3770;DHT22;1900;48.890;9.190;2023-07-20T02:00:26;26.80;42.10
3770;DHT22;1900;48.890;9.190;2023-07-20T02:02:52;26.80;42.10
3770;DHT22;1900;48.890;9.190;2023-07-20T02:05:20;26.70;42.60
3770;DHT22;1900;48.890;9.190;2023-07-20T02:07:47;26.70;42.10
3770;DHT22;1900;48.890;9.190;2023-07-20T02:10:18;26.70;42.10
3770;DHT22;1900;48.890;9.190;2023-07-20T02:12:44;26.70;42.10
3770;DHT22;1900;48.890;9.190;2023-07-20T02:15:10;26.60;42.00
3770;DHT22;1900;48.890;9.190;2023-07-20T02:17:36;26.60;42.00
3770;DHT22;1900;48.890;9.190;2023-07-20T02:20:03;26.60;42.00
3770;DHT22;1900;48.890;9.190;2023-07-20T02:22:29;26.60;42.00
3770;DHT22;1900;48.890;9.190;2023-07-20T02:24:54;26.50;41.90
3770;DHT22;1900;48.890;9.190;2023-07-20T02:27:20;26.50;42.00
3770;DHT22;1900;48.890;9.190;2023-07-20T02:29:46;26.50;42.00
3770;DHT22;1900;48.890;9.190;2023-07-20T02:32:12;26.50;42.00
3770;DHT22;1900;48.890;9.190;2023-07-20T02:34:37;26.40;42.00
3770;DHT22;1900;48.890;9.190;2023-07-20T02:37:04;26.40;42.00
3770;DHT22;1900;48.890;9.190;2023-07-20T02:39:30;26.40;42.00
3770;DHT22;1900;48.890;9.190;2023-07-20T02:41:56;26.30;41.90
3770;DHT22;1900;48.890;9.190;2023-07-20T02:44:22;26.30;42.00
3770;DHT22;1900;48.890;9.190;2023-07-20T02:46:48;26.30;42.10
3770;DHT22;1900;48.890;9.190;2023-07-20T02:49:15;26.30;42.10
3770;DHT22;1900;48.890;9.190;2023-07-20T02:51:42;26.20;42.00
3770;DHT22;1900;48.890;9.190;2023-07-20T02:54:08;26.20;42.00
3770;DHT22;1900;48.890;9.190;2023-07-20T02:56:33;26.20;41.90
3770;DHT22;1900;48.890;9.190;2023-07-20T02:59:01;26.20;42.00
3770;DHT22;1900;48.890;9.190;2023-07-20T03:01:27;26.10;42.00
3770;DHT22;1900;48.890;9.190;2023-07-20T03:03:55;26.10;42.00
3770;DHT22;1900;48.890;9.190;2023-07-20T03:06:21;26.10;42.00
3770;DHT22;1900;48.890;9.190;2023-07-20T03:08:50;26.00;42.00
3770;DHT22;1900;48.890;9.190;2023-07-20T03:11:20;26.00;42.60
3770;DHT22;1900;48.890;9.190;2023-07-20T03:13:47;26.00;42.00
3770;DHT22;1900;48.890;9.190;2023-07-20T03:16:15;26.00;42.00
3770;DHT22;1900;48.890;9.190;2023-07-20T03:18:43;25.90;42.00
3770;DHT22;1900;48.890;9.190;2023-07-20T03:21:10;25.90;42.00
3770;DHT22;1900;48.890;9.190;2023-07-20T03:23:39;25.90;42.10
3770;DHT22;1900;48.890;9.190;2023-07-20T03:26:06;25.90;42.70
3770;DHT22;1900;48.890;9.190;2023-07-20T03:28:37;25.90;42.10
3770;DHT22;1900;48.890;9.190;2023-07-20T03:31:04;25.80;42.10
3770;DHT22;1900;48.890;9.190;2023-07-20T03:33:33;25.80;42.10
3770;DHT22;1900;48.890;9.190;2023-07-20T03:35:59;25.80;42.10
3770;DHT22;1900;48.890;9.190;2023-07-20T03:38:26;25.80;42.10
3770;DHT22;1900;48.890;9.190;2023-07-20T03:40:57;25.80;42.20
3770;DHT22;1900;48.890;9.190;2023-07-20T03:43:24;25.70;42.20
3770;DHT22;1900;48.890;9.190;2023-07-20T03:45:50;25.70;42.20
3770;DHT22;1900;48.890;9.190;2023-07-20T03:48:20;25.70;42.20
3770;DHT22;1900;48.890;9.190;2023-07-20T03:50:48;25.70;42.20
3770;DHT22;1900;48.890;9.190;2023-07-20T03:53:15;25.60;42.30
3770;DHT22;1900;48.890;9.190;2023-07-20T03:55:44;25.60;42.30
3770;DHT22;1900;48.890;9.190;2023-07-20T03:58:10;25.60;42.30
3770;DHT22;1900;48.890;9.190;2023-07-20T04:00:35;25.60;42.30
3770;DHT22;1900;48.890;9.190;2023-07-20T04:03:01;25.60;42.40
3770;DHT22;1900;48.890;9.190;2023-07-20T04:05:27;25.60;42.40
3770;DHT22;1900;48.890;9.190;2023-07-20T04:07:52;25.60;42.30
3770;DHT22;1900;48.890;9.190;2023-07-20T04:10:19;25.60;42.40
3770;DHT22;1900;48.890;9.190;2023-07-20T04:12:51;25.60;42.40
3770;DHT22;1900;48.890;9.190;2023-07-20T04:15:17;25.60;42.40
3770;DHT22;1900;48.890;9.190;2023-07-20T04:17:42;25.50;42.40
3770;DHT22;1900;48.890;9.190;2023-07-20T04:20:10;25.60;42.40
3770;DHT22;1900;48.890;9.190;2023-07-20T04:22:35;25.50;42.40
3770;DHT22;1900;48.890;9.190;2023-07-20T04:25:03;25.50;42.40
3770;DHT22;1900;48.890;9.190;2023-07-20T04:27:29;25.50;42.40
3770;DHT22;1900;48.890;9.190;2023-07-20T04:29:54;25.50;42.70
3770;DHT22;1900;48.890;9.190;2023-07-20T04:32:20;25.50;42.50
3770;DHT22;1900;48.890;9.190;2023-07-20T04:34:46;25.50;42.50
3770;DHT22;1900;48.890;9.190;2023-07-20T04:37:12;25.50;42.60
3770;DHT22;1900;48.890;9.190;2023-07-20T04:39:37;25.50;42.60
3770;DHT22;1900;48.890;9.190;2023-07-20T04:42:08;25.50;42.70
3770;DHT22;1900;48.890;9.190;2023-07-20T04:44:33;25.50;42.70
3770;DHT22;1900;48.890;9.190;2023-07-20T04:46:59;25.50;42.80
3770;DHT22;1900;48.890;9.190;2023-07-20T04:49:25;25.50;42.80
3770;DHT22;1900;48.890;9.190;2023-07-20T04:51:51;25.50;42.80
3770;DHT22;1900;48.890;9.190;2023-07-20T04:54:18;25.60;43.00
3770;DHT22;1900;48.890;9.190;2023-07-20T04:56:44;25.60;43.00
3770;DHT22;1900;48.890;9.190;2023-07-20T04:59:11;25.60;43.00
3770;DHT22;1900;48.890;9.190;2023-07-20T05:01:37;25.60;43.10
3770;DHT22;1900;48.890;9.190;2023-07-20T05:04:03;25.70;43.10
3770;DHT22;1900;48.890;9.190;2023-07-20T05:06:29;25.70;43.10
3770;DHT22;1900;48.890;9.190;2023-07-20T05:08:58;25.70;43.10
3770;DHT22;1900;48.890;9.190;2023-07-20T05:11:23;25.70;43.00
3770;DHT22;1900;48.890;9.190;2023-07-20T05:13:49;25.70;43.10
3770;DHT22;1900;48.890;9.190;2023-07-20T05:16:15;25.70;43.10
3770;DHT22;1900;48.890;9.190;2023-07-20T05:18:41;25.80;43.20
3770;DHT22;1900;48.890;9.190;2023-07-20T05:21:07;25.80;43.20
3770;DHT22;1900;48.890;9.190;2023-07-20T05:23:33;25.80;43.30
3770;DHT22;1900;48.890;9.190;2023-07-20T05:26:00;25.80;43.30
3770;DHT22;1900;48.890;9.190;2023-07-20T05:28:26;25.80;43.30
3770;DHT22;1900;48.890;9.190;2023-07-20T05:30:53;25.80;43.40
3770;DHT22;1900;48.890;9.190;2023-07-20T05:33:22;25.90;43.40
3770;DHT22;1900;48.890;9.190;2023-07-20T05:35:48;25.90;43.40
3770;DHT22;1900;48.890;9.190;2023-07-20T05:38:13;25.90;43.30
3770;DHT22;1900;48.890;9.190;2023-07-20T05:40:41;25.90;43.30
3770;DHT22;1900;48.890;9.190;2023-07-20T05:43:08;25.90;43.30
3770;DHT22;1900;48.890;9.190;2023-07-20T05:45:34;25.90;43.40
3770;DHT22;1900;48.890;9.190;2023-07-20T05:48:00;25.90;43.50
3770;DHT22;1900;48.890;9.190;2023-07-20T05:50:25;25.90;43.50
3770;DHT22;1900;48.890;9.190;2023-07-20T05:52:52;25.90;43.50
3770;DHT22;1900;48.890;9.190;2023-07-20T05:55:18;25.90;43.50
3770;DHT22;1900;48.890;9.190;2023-07-20T05:57:44;25.90;43.50
3770;DHT22;1900;48.890;9.190;2023-07-20T06:00:10;25.90;43.50
3770;DHT22;1900;48.890;9.190;2023-07-20T06:02:38;25.90;43.60
3770;DHT22;1900;48.890;9.190;2023-07-20T06:05:05;26.00;43.70
3770;DHT22;1900;48.890;9.190;2023-07-20T06:07:32;26.00;43.80
3770;DHT22;1900;48.890;9.190;2023-07-20T06:10:00;26.00;43.80
3770;DHT22;1900;48.890;9.190;2023-07-20T06:12:26;26.00;43.80
3770;DHT22;1900;48.890;9.190;2023-07-20T06:14:52;26.10;43.90
3770;DHT22;1900;48.890;9.190;2023-07-20T06:17:17;26.00;43.80
3770;DHT22;1900;48.890;9.190;2023-07-20T06:19:43;26.00;43.80
3770;DHT22;1900;48.890;9.190;2023-07-20T06:22:09;26.10;43.80
3770;DHT22;1900;48.890;9.190;2023-07-20T06:24:34;26.10;43.90
3770;DHT22;1900;48.890;9.190;2023-07-20T06:27:00;26.10;44.00
3770;DHT22;1900;48.890;9.190;2023-07-20T06:29:26;26.20;44.00
3770;DHT22;1900;48.890;9.190;2023-07-20T06:31:51;26.20;44.00
3770;DHT22;1900;48.890;9.190;2023-07-20T06:34:17;26.20;44.00
3770;DHT22;1900;48.890;9.190;2023-07-20T06:36:43;26.20;44.00
3770;DHT22;1900;48.890;9.190;2023-07-20T06:39:08;26.30;44.00
3770;DHT22;1900;48.890;9.190;2023-07-20T06:41:34;26.30;44.00
3770;DHT22;1900;48.890;9.190;2023-07-20T06:44:00;26.30;44.10
3770;DHT22;1900;48.890;9.190;2023-07-20T06:46:26;26.30;44.10
3770;DHT22;1900;48.890;9.190;2023-07-20T06:48:51;26.30;44.00
3770;DHT22;1900;48.890;9.190;2023-07-20T06:51:17;26.30;44.00
3770;DHT22;1900;48.890;9.190;2023-07-20T06:53:43;26.40;44.10
3770;DHT22;1900;48.890;9.190;2023-07-20T06:56:09;26.40;44.20
3770;DHT22;1900;48.890;9.190;2023-07-20T06:58:35;26.40;44.10
3770;DHT22;1900;48.890;9.190;2023-07-20T07:01:07;26.40;44.20
3770;DHT22;1900;48.890;9.190;2023-07-20T07:03:33;26.40;44.20
3770;DHT22;1900;48.890;9.190;2023-07-20T07:05:59;26.40;44.20
3770;DHT22;1900;48.890;9.190;2023-07-20T07:08:25;26.40;44.20
3770;DHT22;1900;48.890;9.190;2023-07-20T07:10:52;26.50;44.40
3770;DHT22;1900;48.890;9.190;2023-07-20T07:13:19;26.50;44.40
3770;DHT22;1900;48.890;9.190;2023-07-20T07:15:44;26.50;44.40
3770;DHT22;1900;48.890;9.190;2023-07-20T07:18:11;26.50;44.20
3770;DHT22;1900;48.890;9.190;2023-07-20T07:20:36;26.50;44.20
3770;DHT22;1900;48.890;9.190;2023-07-20T07:23:02;26.50;44.30
3770;DHT22;1900;48.890;9.190;2023-07-20T07:25:28;26.60;44.50
3770;DHT22;1900;48.890;9.190;2023-07-20T07:27:54;26.60;44.50
3770;DHT22;1900;48.890;9.190;2023-07-20T07:30:21;26.60;44.70
3770;DHT22;1900;48.890;9.190;2023-07-20T07:32:47;26.70;44.80
3770;DHT22;1900;48.890;9.190;2023-07-20T07:35:13;26.70;44.80
3770;DHT22;1900;48.890;9.190;2023-07-20T07:37:39;26.70;44.80
3770;DHT22;1900;48.890;9.190;2023-07-20T07:40:05;26.70;44.80
3770;DHT22;1900;48.890;9.190;2023-07-20T07:42:31;26.80;44.80
3770;DHT22;1900;48.890;9.190;2023-07-20T07:44:57;26.80;44.80
3770;DHT22;1900;48.890;9.190;2023-07-20T07:47:23;26.90;44.90
3770;DHT22;1900;48.890;9.190;2023-07-20T07:49:49;26.90;45.00
3770;DHT22;1900;48.890;9.190;2023-07-20T07:52:15;26.90;44.90
3770;DHT22;1900;48.890;9.190;2023-07-20T07:54:41;26.90;44.80
3770;DHT22;1900;48.890;9.190;2023-07-20T07:57:07;27.00;45.00
3770;DHT22;1900;48.890;9.190;2023-07-20T07:59:32;27.00;45.10
3770;DHT22;1900;48.890;9.190;2023-07-20T08:02:04;27.10;45.20
3770;DHT22;1900;48.890;9.190;2023-07-20T08:04:30;27.20;45.20
3770;DHT22;1900;48.890;9.190;2023-07-20T08:06:55;27.20;45.20
3770;DHT22;1900;48.890;9.190;2023-07-20T08:09:21;27.30;44.80
3770;DHT22;1900;48.890;9.190;2023-07-20T08:11:47;27.30;45.20
3770;DHT22;1900;48.890;9.190;2023-07-20T08:14:13;27.40;45.20
3770;DHT22;1900;48.890;9.190;2023-07-20T08:16:39;27.40;45.10
3770;DHT22;1900;48.890;9.190;2023-07-20T08:19:05;27.40;45.00
3770;DHT22;1900;48.890;9.190;2023-07-20T08:21:30;27.40;45.10
3770;DHT22;1900;48.890;9.190;2023-07-20T08:23:56;27.40;45.10
3770;DHT22;1900;48.890;9.190;2023-07-20T08:26:23;27.50;45.20
3770;DHT22;1900;48.890;9.190;2023-07-20T08:28:49;27.60;45.30
3770;DHT22;1900;48.890;9.190;2023-07-20T08:31:15;27.60;45.30
3770;DHT22;1900;48.890;9.190;2023-07-20T08:33:41;27.70;45.40
3770;DHT22;1900;48.890;9.190;2023-07-20T08:36:06;27.70;45.40
3770;DHT22;1900;48.890;9.190;2023-07-20T08:38:33;27.80;45.30
3770;DHT22;1900;48.890;9.190;2023-07-20T08:41:01;27.90;45.40
3770;DHT22;1900;48.890;9.190;2023-07-20T08:43:28;27.90;45.40
3770;DHT22;1900;48.890;9.190;2023-07-20T08:45:54;27.90;45.30
3770;DHT22;1900;48.890;9.190;2023-07-20T08:48:21;28.00;45.30
3770;DHT22;1900;48.890;9.190;2023-07-20T08:50:51;28.10;46.00
3770;DHT22;1900;48.890;9.190;2023-07-20T08:53:17;28.10;45.30
3770;DHT22;1900;48.890;9.190;2023-07-20T08:55:44;28.10;45.30
3770;DHT22;1900;48.890;9.190;2023-07-20T08:58:12;28.20;45.40
3770;DHT22;1900;48.890;9.190;2023-07-20T09:00:41;28.20;45.40
3770;DHT22;1900;48.890;9.190;2023-07-20T09:03:07;28.40;45.70
3770;DHT22;1900;48.890;9.190;2023-07-20T09:05:34;28.40;45.70
3770;DHT22;1900;48.890;9.190;2023-07-20T09:08:03;28.50;45.70
3770;DHT22;1900;48.890;9.190;2023-07-20T09:10:30;28.60;45.80
3770;DHT22;1900;48.890;9.190;2023-07-20T09:12:55;28.70;45.70
3770;DHT22;1900;48.890;9.190;2023-07-20T09:15:22;28.70;45.60
3770;DHT22;1900;48.890;9.190;2023-07-20T09:17:49;28.80;45.60
3770;DHT22;1900;48.890;9.190;2023-07-20T09:20:16;28.90;45.50
3770;DHT22;1900;48.890;9.190;2023-07-20T09:22:43;28.90;45.50
3770;DHT22;1900;48.890;9.190;2023-07-20T09:25:13;29.00;45.50
3770;DHT22;1900;48.890;9.190;2023-07-20T09:27:44;29.00;45.40
3770;DHT22;1900;48.890;9.190;2023-07-20T09:30:10;29.10;45.40
3770;DHT22;1900;48.890;9.190;2023-07-20T09:32:47;29.10;45.20
3770;DHT22;1900;48.890;9.190;2023-07-20T09:35:17;29.10;45.00
3770;DHT22;1900;48.890;9.190;2023-07-20T09:37:48;29.10;45.00
3770;DHT22;1900;48.890;9.190;2023-07-20T09:40:17;29.10;45.00
3770;DHT22;1900;48.890;9.190;2023-07-20T09:42:44;29.20;45.10
3770;DHT22;1900;48.890;9.190;2023-07-20T09:45:10;29.20;44.80
3770;DHT22;1900;48.890;9.190;2023-07-20T09:47:37;29.30;44.80
3770;DHT22;1900;48.890;9.190;2023-07-20T09:50:04;29.30;44.70
3770;DHT22;1900;48.890;9.190;2023-07-20T09:52:31;29.30;44.50
3770;DHT22;1900;48.890;9.190;2023-07-20T09:54:58;29.30;44.60
3770;DHT22;1900;48.890;9.190;2023-07-20T09:57:24;29.40;44.50
3770;DHT22;1900;48.890;9.190;2023-07-20T09:59:51;29.40;45.20
3770;DHT22;1900;48.890;9.190;2023-07-20T10:02:23;29.50;44.60
3770;DHT22;1900;48.890;9.190;2023-07-20T10:04:52;29.50;44.60
3770;DHT22;1900;48.890;9.190;2023-07-20T10:07:19;29.60;44.10
3770;DHT22;1900;48.890;9.190;2023-07-20T10:09:48;29.60;44.30
3770;DHT22;1900;48.890;9.190;2023-07-20T10:12:16;29.70;44.50
3770;DHT22;1900;48.890;9.190;2023-07-20T10:14:52;29.80;44.50
3770;DHT22;1900;48.890;9.190;2023-07-20T10:17:20;29.90;44.10
3770;DHT22;1900;48.890;9.190;2023-07-20T10:19:52;29.90;44.30
3770;DHT22;1900;48.890;9.190;2023-07-20T10:22:26;29.90;43.70
3770;DHT22;1900;48.890;9.190;2023-07-20T10:24:51;30.00;44.00
3770;DHT22;1900;48.890;9.190;2023-07-20T10:27:20;30.10;44.00
3770;DHT22;1900;48.890;9.190;2023-07-20T10:29:47;30.10;43.60
3770;DHT22;1900;48.890;9.190;2023-07-20T10:32:13;30.20;43.70
3770;DHT22;1900;48.890;9.190;2023-07-20T10:34:39;30.30;43.80
3770;DHT22;1900;48.890;9.190;2023-07-20T10:37:05;30.30;43.40
3770;DHT22;1900;48.890;9.190;2023-07-20T10:39:32;30.40;43.20
3770;DHT22;1900;48.890;9.190;2023-07-20T10:42:06;30.50;43.80
3770;DHT22;1900;48.890;9.190;2023-07-20T10:44:33;30.50;44.00
3770;DHT22;1900;48.890;9.190;2023-07-20T10:47:03;30.70;44.40
3770;DHT22;1900;48.890;9.190;2023-07-20T10:49:34;30.80;44.40
3770;DHT22;1900;48.890;9.190;2023-07-20T10:52:04;30.90;44.50
3770;DHT22;1900;48.890;9.190;2023-07-20T10:56:57;31.10;43.70
3770;DHT22;1900;48.890;9.190;2023-07-20T11:01:49;31.30;43.60
3770;DHT22;1900;48.890;9.190;2023-07-20T11:04:15;31.30;43.20
3770;DHT22;1900;48.890;9.190;2023-07-20T11:06:54;31.40;42.50
3770;DHT22;1900;48.890;9.190;2023-07-20T11:09:22;31.40;42.30
3770;DHT22;1900;48.890;9.190;2023-07-20T11:12:17;31.40;42.30
3770;DHT22;1900;48.890;9.190;2023-07-20T11:14:54;31.50;42.30
3770;DHT22;1900;48.890;9.190;2023-07-20T11:17:20;31.60;42.50
3770;DHT22;1900;48.890;9.190;2023-07-20T11:19:55;31.60;41.50
3770;DHT22;1900;48.890;9.190;2023-07-20T11:22:21;31.60;41.60
3770;DHT22;1900;48.890;9.190;2023-07-20T11:24:47;31.60;41.50
3770;DHT22;1900;48.890;9.190;2023-07-20T11:27:15;31.70;41.90
3770;DHT22;1900;48.890;9.190;2023-07-20T11:29:40;31.70;41.20
3770;DHT22;1900;48.890;9.190;2023-07-20T11:32:07;31.70;41.10
3770;DHT22;1900;48.890;9.190;2023-07-20T11:34:34;31.70;41.40
3770;DHT22;1900;48.890;9.190;2023-07-20T11:37:00;31.80;41.50
3770;DHT22;1900;48.890;9.190;2023-07-20T11:39:26;31.90;42.00
3770;DHT22;1900;48.890;9.190;2023-07-20T11:41:54;31.90;41.80
3770;DHT22;1900;48.890;9.190;2023-07-20T11:44:22;32.10;42.10
3770;DHT22;1900;48.890;9.190;2023-07-20T11:47:07;32.10;41.90
3770;DHT22;1900;48.890;9.190;2023-07-20T11:49:42;32.20;42.20
3770;DHT22;1900;48.890;9.190;2023-07-20T11:52:17;32.40;42.50
3770;DHT22;1900;48.890;9.190;2023-07-20T11:54:43;32.50;42.10
3770;DHT22;1900;48.890;9.190;2023-07-20T11:57:19;32.60;42.00
3770;DHT22;1900;48.890;9.190;2023-07-20T12:02:23;32.70;41.40
3770;DHT22;1900;48.890;9.190;2023-07-20T12:04:51;32.80;41.80
3770;DHT22;1900;48.890;9.190;2023-07-20T12:07:18;32.90;42.20
3770;DHT22;1900;48.890;9.190;2023-07-20T12:09:45;33.00;42.30
3770;DHT22;1900;48.890;9.190;2023-07-20T12:12:28;33.10;41.90
3770;DHT22;1900;48.890;9.190;2023-07-20T12:14:53;33.20;42.10
3770;DHT22;1900;48.890;9.190;2023-07-20T12:17:19;33.20;40.90
3770;DHT22;1900;48.890;9.190;2023-07-20T12:19:45;33.30;41.00
3770;DHT22;1900;48.890;9.190;2023-07-20T12:22:11;33.30;41.10
3770;DHT22;1900;48.890;9.190;2023-07-20T12:24:37;33.40;41.30
3770;DHT22;1900;48.890;9.190;2023-07-20T12:27:03;33.40;40.40
3770;DHT22;1900;48.890;9.190;2023-07-20T12:29:29;33.50;38.40
3770;DHT22;1900;48.890;9.190;2023-07-20T12:31:57;33.40;37.70
3770;DHT22;1900;48.890;9.190;2023-07-20T12:34:22;33.40;39.00
3770;DHT22;1900;48.890;9.190;2023-07-20T12:36:48;33.40;39.30
3770;DHT22;1900;48.890;9.190;2023-07-20T12:39:13;33.50;39.80
3770;DHT22;1900;48.890;9.190;2023-07-20T12:41:39;33.50;40.50
3770;DHT22;1900;48.890;9.190;2023-07-20T12:44:05;33.60;40.20
3770;DHT22;1900;48.890;9.190;2023-07-20T12:46:31;33.70;40.60
3770;DHT22;1900;48.890;9.190;2023-07-20T12:49:00;33.80;40.00
3770;DHT22;1900;48.890;9.190;2023-07-20T12:51:26;33.90;40.70
3770;DHT22;1900;48.890;9.190;2023-07-20T12:53:51;34.00;40.60
3770;DHT22;1900;48.890;9.190;2023-07-20T12:56:17;34.10;39.70
3770;DHT22;1900;48.890;9.190;2023-07-20T12:58:43;34.10;39.30
3770;DHT22;1900;48.890;9.190;2023-07-20T13:01:08;34.20;38.80
3770;DHT22;1900;48.890;9.190;2023-07-20T13:03:34;34.20;39.30
3770;DHT22;1900;48.890;9.190;2023-07-20T13:05:59;34.20;39.50
3770;DHT22;1900;48.890;9.190;2023-07-20T13:08:25;34.30;40.00
3770;DHT22;1900;48.890;9.190;2023-07-20T13:10:52;34.40;40.40
3770;DHT22;1900;48.890;9.190;2023-07-20T13:13:18;34.50;40.10
3770;DHT22;1900;48.890;9.190;2023-07-20T13:15:44;34.50;38.80
3770;DHT22;1900;48.890;9.190;2023-07-20T13:18:11;34.60;39.10
3770;DHT22;1900;48.890;9.190;2023-07-20T13:20:36;34.60;39.50
3770;DHT22;1900;48.890;9.190;2023-07-20T13:23:02;34.70;39.80
3770;DHT22;1900;48.890;9.190;2023-07-20T13:25:28;34.70;39.20
3770;DHT22;1900;48.890;9.190;2023-07-20T13:27:53;34.80;39.90
3770;DHT22;1900;48.890;9.190;2023-07-20T13:30:19;34.90;39.50
3770;DHT22;1900;48.890;9.190;2023-07-20T13:32:48;34.90;40.00
3770;DHT22;1900;48.890;9.190;2023-07-20T13:35:13;35.00;39.60
3770;DHT22;1900;48.890;9.190;2023-07-20T13:37:40;35.20;39.50
3770;DHT22;1900;48.890;9.190;2023-07-20T13:40:06;35.20;39.10
3770;DHT22;1900;48.890;9.190;2023-07-20T13:42:33;35.20;37.20
3770;DHT22;1900;48.890;9.190;2023-07-20T13:44:58;35.20;38.30
3770;DHT22;1900;48.890;9.190;2023-07-20T13:47:25;35.30;38.80
3770;DHT22;1900;48.890;9.190;2023-07-20T13:49:51;35.30;37.80
3770;DHT22;1900;48.890;9.190;2023-07-20T13:52:17;35.30;38.50
3770;DHT22;1900;48.890;9.190;2023-07-20T13:54:42;35.20;38.10
3770;DHT22;1900;48.890;9.190;2023-07-20T13:57:08;35.30;38.00
3770;DHT22;1900;48.890;9.190;2023-07-20T13:59:34;35.30;37.50
3770;DHT22;1900;48.890;9.190;2023-07-20T14:01:59;35.30;37.50
3770;DHT22;1900;48.890;9.190;2023-07-20T14:04:25;35.30;37.80
3770;DHT22;1900;48.890;9.190;2023-07-20T14:06:51;35.30;38.00
3770;DHT22;1900;48.890;9.190;2023-07-20T14:09:19;35.30;37.80
3770;DHT22;1900;48.890;9.190;2023-07-20T14:11:45;35.30;38.30
3770;DHT22;1900;48.890;9.190;2023-07-20T14:14:10;35.40;38.70
3770;DHT22;1900;48.890;9.190;2023-07-20T14:16:36;35.50;38.40
3770;DHT22;1900;48.890;9.190;2023-07-20T14:19:02;35.50;38.00
3770;DHT22;1900;48.890;9.190;2023-07-20T14:21:30;35.60;38.00
3770;DHT22;1900;48.890;9.190;2023-07-20T14:23:56;35.60;38.10
3770;DHT22;1900;48.890;9.190;2023-07-20T14:26:23;35.60;38.20
3770;DHT22;1900;48.890;9.190;2023-07-20T14:28:49;35.70;38.30
3770;DHT22;1900;48.890;9.190;2023-07-20T14:31:15;35.80;38.60
3770;DHT22;1900;48.890;9.190;2023-07-20T14:33:40;35.80;38.00
3770;DHT22;1900;48.890;9.190;2023-07-20T14:36:06;35.90;38.50
3770;DHT22;1900;48.890;9.190;2023-07-20T14:38:34;35.90;38.40
3770;DHT22;1900;48.890;9.190;2023-07-20T14:41:00;36.00;37.30
3770;DHT22;1900;48.890;9.190;2023-07-20T14:43:26;36.00;37.30
3770;DHT22;1900;48.890;9.190;2023-07-20T14:45:51;36.00;37.50
3770;DHT22;1900;48.890;9.190;2023-07-20T14:48:17;36.00;38.00
3770;DHT22;1900;48.890;9.190;2023-07-20T14:50:43;36.00;38.20
3770;DHT22;1900;48.890;9.190;2023-07-20T14:53:12;36.10;38.40
3770;DHT22;1900;48.890;9.190;2023-07-20T14:55:37;36.10;37.20
3770;DHT22;1900;48.890;9.190;2023-07-20T14:58:03;36.10;37.60
3770;DHT22;1900;48.890;9.190;2023-07-20T15:00:29;36.00;38.30
3770;DHT22;1900;48.890;9.190;2023-07-20T15:02:56;36.00;37.40
3770;DHT22;1900;48.890;9.190;2023-07-20T15:05:22;36.00;37.60
3770;DHT22;1900;48.890;9.190;2023-07-20T15:07:48;36.00;37.90
3770;DHT22;1900;48.890;9.190;2023-07-20T15:10:15;36.00;37.90
3770;DHT22;1900;48.890;9.190;2023-07-20T15:12:41;36.00;37.70
3770;DHT22;1900;48.890;9.190;2023-07-20T15:15:14;35.90;37.10
3770;DHT22;1900;48.890;9.190;2023-07-20T15:17:42;35.90;37.30
3770;DHT22;1900;48.890;9.190;2023-07-20T15:20:10;35.90;37.40
3770;DHT22;1900;48.890;9.190;2023-07-20T15:22:36;35.80;37.10
3770;DHT22;1900;48.890;9.190;2023-07-20T15:25:03;35.70;37.00
3770;DHT22;1900;48.890;9.190;2023-07-20T15:27:29;35.70;37.00
3770;DHT22;1900;48.890;9.190;2023-07-20T15:29:55;35.60;37.10
3770;DHT22;1900;48.890;9.190;2023-07-20T15:32:21;35.60;37.60
3770;DHT22;1900;48.890;9.190;2023-07-20T15:34:47;35.50;37.00
3770;DHT22;1900;48.890;9.190;2023-07-20T15:37:13;35.40;36.90
3770;DHT22;1900;48.890;9.190;2023-07-20T15:39:39;35.40;37.00
3770;DHT22;1900;48.890;9.190;2023-07-20T15:42:05;35.30;36.90
3770;DHT22;1900;48.890;9.190;2023-07-20T15:44:31;35.30;36.70
3770;DHT22;1900;48.890;9.190;2023-07-20T15:46:57;35.20;36.30
3770;DHT22;1900;48.890;9.190;2023-07-20T15:49:23;35.10;36.40
3770;DHT22;1900;48.890;9.190;2023-07-20T15:51:53;35.00;36.50
3770;DHT22;1900;48.890;9.190;2023-07-20T15:54:19;34.90;37.10
3770;DHT22;1900;48.890;9.190;2023-07-20T15:56:46;34.90;36.60
3770;DHT22;1900;48.890;9.190;2023-07-20T15:59:13;34.80;36.40
3770;DHT22;1900;48.890;9.190;2023-07-20T16:01:39;34.70;36.40
3770;DHT22;1900;48.890;9.190;2023-07-20T16:04:06;34.70;36.20
3770;DHT22;1900;48.890;9.190;2023-07-20T16:06:32;34.60;36.20
3770;DHT22;1900;48.890;9.190;2023-07-20T16:08:58;34.50;36.10
3770;DHT22;1900;48.890;9.190;2023-07-20T16:11:24;34.40;36.00
3770;DHT22;1900;48.890;9.190;2023-07-20T16:13:51;34.30;36.00
3770;DHT22;1900;48.890;9.190;2023-07-20T16:16:17;34.20;36.10
3770;DHT22;1900;48.890;9.190;2023-07-20T16:18:43;34.10;35.90